Time;durP1;ratioP1;P1;durP2;ratioP2;P2;SDS_P1;SDS_P2;PMS_P1;PMS_P2;Temp;Humidity;BMP_temperature;BMP_pressure;BME280_temperature;BME280_humidity;BME280_pressure;Samples;Min_cycle;Max_cycle;Signal;HPM_P1;HPM_P2
2023/08/05 00:02:28;;;;;;;2.60;1.20;;;;;;;12.52;87.27;99449.62;107336;1274;22481;-52
2023/08/05 00:05:08;;;;;;;3.10;1.50;;;;;;;12.49;87.15;99448.07;106983;1273;99049;-54
2023/08/05 00:07:40;;;;;;;2.20;1.00;;;;;;;12.45;87.14;99453.20;106916;1275;22507;-57
2023/08/05 00:10:12;;;;;;;1.40;1.10;;;;;;;12.41;87.09;99460.42;106913;1269;22526;-54
2023/08/05 00:12:47;;;;;;;1.30;0.90;;;;;;;12.38;87.02;99458.98;106926;1272;99113;-54
2023/08/05 00:15:19;;;;;;;1.90;1.10;;;;;;;12.32;87.09;99458.83;107059;1275;24381;-55
2023/08/05 00:17:55;;;;;;;3.20;1.40;;;;;;;12.30;87.03;99460.69;106871;1273;99253;-53
2023/08/05 00:20:43;;;;;;;;;;;;;;;;;;;;;
2023/08/05 00:23:46;;;;;;;2.50;1.30;;;;;;;12.29;87.53;99447.50;107049;1270;99779;-52
2023/08/05 00:26:18;;;;;;;6.10;1.80;;;;;;;12.29;87.75;99442.77;107078;1269;22532;-54
2023/08/05 00:28:47;;;;;;;3.30;1.80;;;;;;;12.30;87.79;99442.90;106837;1273;99318;-54
2023/08/05 00:31:28;;;;;;;2.50;1.60;;;;;;;12.28;87.89;99440.91;106976;1269;25510;-53
2023/08/05 00:34:00;;;;;;;2.00;1.30;;;;;;;12.26;87.89;99438.59;106947;1275;22588;-53
2023/08/05 00:36:29;;;;;;;1.50;1.20;;;;;;;12.24;88.01;99437.11;107004;1269;99455;-52
2023/08/05 00:38:58;;;;;;;1.70;1.10;;;;;;;12.25;88.01;99435.86;106940;1271;24203;-54
2023/08/05 00:41:39;;;;;;;1.40;1.00;;;;;;;12.22;87.89;99438.43;106982;1269;100075;-52
2023/08/05 00:44:08;;;;;;;1.60;1.20;;;;;;;12.18;87.88;99441.63;107157;1270;22586;-56
2023/08/05 00:46:46;;;;;;;1.90;1.10;;;;;;;12.18;87.88;99440.95;107135;1267;24199;-52
2023/08/05 00:49:58;;;;;;;1.70;1.30;;;;;;;12.17;87.78;99442.74;106888;1270;25384;-54
2023/08/05 00:52:38;;;;;;;2.20;1.60;;;;;;;12.14;87.78;99447.83;106909;1275;22529;-51
2023/08/05 00:55:08;;;;;;;2.50;1.30;;;;;;;12.11;87.88;99454.10;106864;1273;98851;-56
2023/08/05 00:57:40;;;;;;;2.30;1.40;;;;;;;12.09;88.01;99450.74;107000;1270;25239;-52
2023/08/05 01:00:17;;;;;;;3.10;1.20;;;;;;;12.10;87.99;99448.58;106817;1253;99167;-53
2023/08/05 01:02:55;;;;;;;3.70;1.40;;;;;;;12.07;87.81;99444.23;106970;1269;22533;-56
2023/08/05 01:05:28;;;;;;;2.70;1.00;;;;;;;12.02;87.66;99442.96;107002;1272;99247;-53
2023/08/05 01:08:02;;;;;;;2.90;1.60;;;;;;;11.96;87.60;99445.04;106888;1270;23477;-54
2023/08/05 01:10:33;;;;;;;2.90;1.40;;;;;;;11.95;87.84;99448.27;106915;1270;22524;-52
2023/08/05 01:13:05;;;;;;;1.70;1.30;;;;;;;11.92;87.96;99446.84;106731;1272;99734;-52
2023/08/05 01:15:37;;;;;;;2.20;1.20;;;;;;;11.89;88.03;99447.21;106875;1270;22751;-53
2023/08/05 01:18:13;;;;;;;1.50;0.90;;;;;;;11.86;88.14;99446.10;107118;1267;99679;-54
2023/08/05 01:20:53;;;;;;;2.90;1.20;;;;;;;11.82;88.12;99443.52;107150;1270;24249;-52
2023/08/05 01:24:16;;;;;;;3.60;1.60;;;;;;;11.79;88.19;99443.17;106976;1274;99906;-54
2023/08/05 01:26:50;;;;;;;2.90;1.70;;;;;;;11.79;88.51;99442.83;107034;1270;25425;-52
2023/08/05 01:29:23;;;;;;;4.50;1.10;;;;;;;11.76;88.52;99445.77;107077;1267;100499;-54
2023/08/05 01:31:57;;;;;;;1.80;1.20;;;;;;;11.68;89.03;99451.96;106831;1267;22539;-54
2023/08/05 01:34:27;;;;;;;2.00;1.40;;;;;;;11.62;89.25;99456.66;106964;1267;22517;-52
2023/08/05 01:36:59;;;;;;;3.00;1.30;;;;;;;11.67;89.00;99460.73;106879;1273;99325;-54
2023/08/05 01:39:29;;;;;;;1.90;1.20;;;;;;;11.68;88.93;99459.85;107063;1267;22641;-53
2023/08/05 01:42:01;;;;;;;2.70;1.10;;;;;;;11.67;89.00;99460.08;106837;1270;99173;-52
2023/08/05 01:44:49;;;;;;;;;;;;;;;;;;;;;
2023/08/05 01:47:23;;;;;;;1.60;0.80;;;;;;;11.62;89.23;99457.19;107064;1267;99856;-55
2023/08/05 01:50:16;;;;;;;5.50;1.20;;;;;;;11.61;89.22;99460.89;107162;1267;22514;-53
2023/08/05 01:52:45;;;;;;;2.50;0.80;;;;;;;11.65;89.30;99460.02;107059;1267;25315;-54
2023/08/05 01:55:14;;;;;;;2.90;1.10;;;;;;;11.66;89.22;99458.70;107039;1274;25322;-56
2023/08/05 01:57:46;;;;;;;1.50;0.90;;;;;;;11.66;89.12;99459.23;106939;1267;24371;-55
2023/08/05 02:00:28;;;;;;;4.20;1.10;;;;;;;11.61;88.97;99453.61;107127;1267;100895;-52
2023/08/05 02:03:14;;;;;;;1.80;0.70;;;;;;;11.53;88.93;99454.75;107146;1267;25514;-53
2023/08/05 02:06:07;;;;;;;0.80;0.60;;;;;;;11.46;89.23;99464.03;107080;1269;99368;-53
2023/08/05 02:08:44;;;;;;;2.30;0.80;;;;;;;11.41;89.32;99465.29;107109;1267;25223;-53
2023/08/05 02:11:28;;;;;;;1.90;1.20;;;;;;;11.39;89.29;99462.67;106990;1270;99360;-53
2023/08/05 02:14:06;;;;;;;3.30;1.10;;;;;;;11.36;89.40;99462.12;107008;1269;22675;-55
2023/08/05 02:16:41;;;;;;;1.10;0.90;;;;;;;11.31;89.72;99460.45;107052;1270;24209;-51
2023/08/05 02:19:29;;;;;;;1.60;0.90;;;;;;;11.31;90.01;99452.64;106851;1270;99830;-52
2023/08/05 02:22:17;;;;;;;1.30;0.80;;;;;;;11.31;90.20;99450.02;106889;1270;22539;-53
2023/08/05 02:24:48;;;;;;;1.20;0.80;;;;;;;11.32;90.31;99448.92;106889;1267;99083;-54
2023/08/05 02:27:20;;;;;;;1.50;0.90;;;;;;;11.34;90.49;99447.95;106962;1267;24268;-54
2023/08/05 02:29:51;;;;;;;1.40;0.80;;;;;;;11.38;90.40;99439.89;107023;1274;99105;-56
2023/08/05 02:32:24;;;;;;;2.00;0.90;;;;;;;11.35;90.48;99437.77;106893;1267;24055;-55
2023/08/05 02:34:56;;;;;;;1.10;0.90;;;;;;;11.34;90.59;99433.46;106844;1269;99316;-58
2023/08/05 02:37:48;;;;;;;1.60;0.70;;;;;;;11.33;90.70;99436.84;107071;1260;22557;-55
2023/08/05 02:40:17;;;;;;;0.90;0.70;;;;;;;11.30;90.53;99436.32;107058;1273;22588;-53
2023/08/05 02:42:49;;;;;;;1.10;0.80;;;;;;;11.33;90.44;99437.54;106937;1267;99095;-53
2023/08/05 02:45:23;;;;;;;1.30;0.90;;;;;;;11.30;90.55;99438.95;106973;1267;25229;-55
2023/08/05 02:48:15;;;;;;;3.50;1.30;;;;;;;11.31;90.37;99438.33;106818;1267;100619;-57
2023/08/05 02:50:50;;;;;;;1.70;1.10;;;;;;;11.32;90.43;99437.95;106939;1270;25356;-55
2023/08/05 02:53:39;;;;;;;3.60;0.90;;;;;;;11.31;90.45;99443.73;106847;1267;99755;-54
2023/08/05 02:56:12;;;;;;;1.40;0.80;;;;;;;11.30;90.28;99446.42;107141;1267;22607;-53
2023/08/05 02:58:44;;;;;;;2.80;1.10;;;;;;;11.25;90.37;99450.84;106895;1267;22548;-53
2023/08/05 03:01:16;;;;;;;1.50;1.30;;;;;;;11.26;90.42;99455.36;107117;1267;23915;-54
2023/08/05 03:03:50;;;;;;;2.30;1.40;;;;;;;11.25;90.54;99455.92;106892;1273;24341;-55
2023/08/05 03:06:24;;;;;;;1.50;1.30;;;;;;;11.30;90.67;99459.31;106981;1267;99102;-56
2023/08/05 03:09:00;;;;;;;1.20;0.90;;;;;;;11.33;90.65;99460.71;106993;1269;22642;-52
2023/08/05 03:11:59;;;;;;;1.30;1.00;;;;;;;11.29;91.14;99457.27;106908;1267;99565;-52
2023/08/05 03:14:38;;;;;;;2.60;1.00;;;;;;;11.27;92.04;99455.49;107154;1267;22519;-54
2023/08/05 03:17:15;;;;;;;2.20;1.20;;;;;;;11.27;92.34;99458.08;107025;1267;99300;-54
2023/08/05 03:19:51;;;;;;;1.20;0.90;;;;;;;11.28;92.31;99458.89;106863;1267;22515;-53
2023/08/05 03:22:23;;;;;;;1.40;0.80;;;;;;;11.29;92.03;99459.90;106953;1267;24209;-52
2023/08/05 03:24:55;;;;;;;1.80;0.90;;;;;;;11.28;91.72;99461.89;107151;1270;99311;-53
2023/08/05 03:27:24;;;;;;;4.40;1.50;;;;;;;11.30;91.77;99464.20;107046;1267;24253;-52
2023/08/05 03:29:53;;;;;;;1.30;0.70;;;;;;;11.35;91.74;99463.91;106963;1274;99130;-52
2023/08/05 03:32:27;;;;;;;1.30;0.60;;;;;;;11.40;91.85;99461.00;107020;1267;22623;-54
2023/08/05 03:34:56;;;;;;;1.60;1.00;;;;;;;11.47;92.05;99457.70;106935;1267;99979;-56
2023/08/05 03:37:27;;;;;;;3.00;1.30;;;;;;;11.55;92.34;99460.73;106861;1270;25393;-53
2023/08/05 03:39:58;;;;;;;0.80;0.60;;;;;;;11.66;92.71;99465.52;106907;1269;25335;-53
2023/08/05 03:42:27;;;;;;;2.90;0.80;;;;;;;11.72;92.50;99460.45;106826;1267;99111;-54
2023/08/05 03:44:56;;;;;;;1.60;0.90;;;;;;;11.77;92.47;99463.84;106969;1267;22650;-54
2023/08/05 03:47:26;;;;;;;1.70;0.80;;;;;;;11.81;92.31;99462.92;106921;1267;99793;-54
2023/08/05 03:49:58;;;;;;;0.60;0.60;;;;;;;11.83;92.24;99463.53;107099;1267;24446;-53
2023/08/05 03:52:29;;;;;;;3.00;0.50;;;;;;;11.86;92.25;99465.66;107033;1270;25427;-52
2023/08/05 03:55:13;;;;;;;0.90;0.60;;;;;;;11.93;92.20;99470.02;106916;1270;99127;-53
2023/08/05 03:58:02;;;;;;;1.90;0.60;;;;;;;11.96;92.38;99479.23;107103;1267;22642;-54
2023/08/05 04:00:40;;;;;;;1.30;0.90;;;;;;;12.00;92.58;99476.90;106896;1268;99129;-53
2023/08/05 04:03:12;;;;;;;1.00;0.90;;;;;;;12.01;92.89;99473.90;106995;1267;22868;-56
2023/08/05 04:05:47;;;;;;;1.40;0.90;;;;;;;12.04;93.52;99473.16;106951;1269;99286;-54
2023/08/05 04:08:18;;;;;;;1.20;0.90;;;;;;;12.11;93.78;99478.54;107042;1267;22530;-52
2023/08/05 04:10:50;;;;;;;1.00;0.70;;;;;;;12.16;93.85;99482.25;107022;1267;22578;-54
2023/08/05 04:13:39;;;;;;;0.90;0.80;;;;;;;12.21;93.71;99489.30;107085;1267;22518;-53
2023/08/05 04:16:34;;;;;;;2.10;1.00;;;;;;;12.24;93.82;99494.35;107231;1263;22517;-54
2023/08/05 04:19:22;;;;;;;2.40;0.80;;;;;;;12.31;94.23;99492.73;107004;1267;99094;-54
2023/08/05 04:22:00;;;;;;;1.70;0.70;;;;;;;12.43;94.44;99497.80;106994;1270;22486;-53
2023/08/05 04:24:53;;;;;;;1.00;0.80;;;;;;;12.57;95.10;99496.65;106997;1262;99134;-57
2023/08/05 04:27:30;;;;;;;2.00;1.10;;;;;;;12.74;95.35;99490.17;107168;1267;25409;-54
2023/08/05 04:30:11;;;;;;;2.40;1.00;;;;;;;12.97;95.53;99499.46;106860;1270;99210;-51
2023/08/05 04:33:22;;;;;;;1.90;0.90;;;;;;;13.13;95.58;99498.34;107269;1274;23296;-55
2023/08/05 04:36:00;;;;;;;2.80;1.30;;;;;;;13.34;96.17;99494.30;107089;1267;99040;-51
2023/08/05 04:39:07;;;;;;;5.30;1.90;;;;;;;13.50;96.57;99493.44;107065;1269;24306;-56
2023/08/05 04:41:39;;;;;;;;;;;;;;;13.74;96.92;99494.54;107207;1267;99093;-54
2023/08/05 04:44:29;;;;;;;3.10;1.20;;;;;;;13.92;97.14;99499.71;107122;1268;22537;-55
2023/08/05 04:47:18;;;;;;;2.10;1.20;;;;;;;14.17;97.01;99500.70;107065;1270;99275;-52
2023/08/05 04:50:16;;;;;;;1.40;1.00;;;;;;;14.40;96.76;99510.02;107048;1269;22547;-54
2023/08/05 04:52:46;;;;;;;2.10;1.40;;;;;;;14.63;96.88;99511.20;106908;1269;22517;-53
2023/08/05 04:55:24;;;;;;;4.30;1.70;;;;;;;14.79;97.02;99510.23;106793;1269;98892;-52
2023/08/05 04:57:56;;;;;;;1.50;1.30;;;;;;;14.96;97.15;99507.16;106867;1269;22519;-55
2023/08/05 05:00:33;;;;;;;1.90;1.30;;;;;;;15.13;97.09;99504.95;106947;1269;99154;-52
2023/08/05 05:03:10;;;;;;;2.10;1.70;;;;;;;15.30;97.21;99508.67;106675;1273;22527;-52
2023/08/05 05:05:47;;;;;;;4.90;2.40;;;;;;;15.49;97.13;99499.39;106861;1269;99115;-52
2023/08/05 05:08:25;;;;;;;2.00;1.70;;;;;;;15.69;96.94;99496.63;106989;1274;22649;-54
2023/08/05 05:10:54;;;;;;;3.20;1.60;;;;;;;15.86;96.89;99506.58;106891;1269;99819;-53
2023/08/05 05:13:28;;;;;;;8.10;1.80;;;;;;;16.06;96.93;99500.45;106923;1269;24387;-57
2023/08/05 05:16:02;;;;;;;1.80;1.50;;;;;;;16.21;96.71;99498.94;106676;1272;22997;-53
2023/08/05 05:18:31;;;;;;;1.70;1.40;;;;;;;16.39;96.80;99494.45;106879;1269;99277;-53
2023/08/05 05:21:02;;;;;;;2.60;1.50;;;;;;;16.58;96.66;99495.82;106832;1269;24236;-53
2023/08/05 05:23:34;;;;;;;4.70;1.80;;;;;;;16.69;96.56;99498.17;106738;1269;99322;-53
2023/08/05 05:26:04;;;;;;;1.90;1.70;;;;;;;16.84;96.75;99497.23;106896;1276;24266;-52
2023/08/05 05:28:34;;;;;;;1.90;1.50;;;;;;;17.02;96.90;99496.23;106927;1269;22582;-54
2023/08/05 05:31:03;;;;;;;2.60;1.20;;;;;;;17.20;96.76;99493.52;106825;1274;99124;-54
2023/08/05 05:33:36;;;;;;;1.60;1.20;;;;;;;17.37;96.62;99494.52;106986;1269;22594;-54
2023/08/05 05:36:07;;;;;;;1.60;1.00;;;;;;;17.52;96.36;99495.77;106797;1270;99182;-53
2023/08/05 05:38:36;;;;;;;1.40;1.00;;;;;;;17.61;96.77;99496.63;107020;1261;22528;-53
2023/08/05 05:41:05;;;;;;;1.60;0.90;;;;;;;17.77;96.63;99500.86;107018;1269;99330;-54
2023/08/05 05:43:35;;;;;;;1.00;0.90;;;;;;;17.94;96.48;99507.23;106854;1272;24269;-56
2023/08/05 05:46:17;;;;;;;2.30;1.20;;;;;;;18.09;96.75;99506.68;107047;1268;22523;-54
2023/08/05 05:48:47;;;;;;;3.40;1.40;;;;;;;18.31;96.80;99506.67;106685;1268;99158;-52
2023/08/05 05:51:16;;;;;;;2.10;1.10;;;;;;;18.44;96.43;99501.02;107102;1260;23892;-54
2023/08/05 05:54:02;;;;;;;3.20;1.40;;;;;;;18.52;96.09;99498.73;107194;1269;99024;-53
2023/08/05 05:56:50;;;;;;;1.40;1.00;;;;;;;18.65;96.02;99496.98;106958;1270;22527;-53
2023/08/05 05:59:19;;;;;;;2.60;0.70;;;;;;;18.82;96.25;99499.63;106897;1272;99348;-53
2023/08/05 06:01:49;;;;;;;2.00;0.90;;;;;;;19.04;96.15;99496.84;107087;1270;22630;-55
2023/08/05 06:04:28;;;;;;;;;;;;;;;19.29;95.87;99491.35;107004;1269;335278;-54
2023/08/05 06:06:57;;;;;;;1.40;0.80;;;;;;;19.51;95.66;99489.72;107000;1272;86380;-56
2023/08/05 06:09:27;;;;;;;1.20;1.00;;;;;;;19.68;95.41;99488.13;106846;1269;22836;-55
2023/08/05 06:11:56;;;;;;;1.70;1.00;;;;;;;19.87;95.34;99484.41;106696;1270;99211;-55
2023/08/05 06:14:26;;;;;;;1.80;1.00;;;;;;;20.03;95.04;99485.19;106856;1270;22534;-56
2023/08/05 06:16:56;;;;;;;2.10;0.90;;;;;;;20.18;94.87;99488.48;106866;1269;100005;-54
2023/08/05 06:19:24;;;;;;;2.80;1.30;;;;;;;20.34;94.65;99491.88;106851;1270;24191;-55
2023/08/05 06:21:56;;;;;;;0.80;0.60;;;;;;;20.46;94.35;99492.39;106899;1269;25269;-54
2023/08/05 06:24:25;;;;;;;2.10;0.90;;;;;;;20.57;94.01;99486.60;106705;1269;100697;-56
2023/08/05 06:27:02;;;;;;;3.20;0.90;;;;;;;20.71;93.85;99479.77;106842;1269;25347;-55
2023/08/05 06:29:31;;;;;;;1.30;1.20;;;;;;;20.80;93.71;99474.35;106785;1269;99275;-54
2023/08/05 06:32:00;;;;;;;1.60;1.20;;;;;;;20.97;93.40;99477.34;106841;1269;25367;-55
2023/08/05 06:34:28;;;;;;;1.60;1.20;;;;;;;21.08;92.90;99486.25;106924;1263;22532;-54
2023/08/05 06:37:00;;;;;;;2.70;1.10;;;;;;;21.23;92.93;99498.07;106712;1269;99137;-55
2023/08/05 06:39:33;;;;;;;1.70;0.90;;;;;;;21.45;92.94;99505.06;106926;1269;25502;-54
2023/08/05 06:42:01;;;;;;;1.50;1.00;;;;;;;21.61;92.58;99505.92;106753;1269;99784;-55
2023/08/05 06:44:31;;;;;;;1.50;0.80;;;;;;;21.73;92.36;99501.29;106889;1269;25022;-56
2023/08/05 06:47:00;;;;;;;1.60;0.70;;;;;;;21.85;91.98;99505.80;106769;1269;99492;-56
2023/08/05 06:49:29;;;;;;;1.70;0.80;;;;;;;21.95;91.59;99507.42;106769;1270;22540;-55
2023/08/05 06:51:58;;;;;;;1.90;1.00;;;;;;;22.05;91.18;99503.04;106895;1270;22539;-57
2023/08/05 06:54:27;;;;;;;1.20;0.80;;;;;;;22.33;91.98;99503.33;106870;1269;99619;-56
2023/08/05 06:56:56;;;;;;;1.30;0.70;;;;;;;22.68;91.72;99506.77;106829;1269;22674;-54
2023/08/05 06:59:26;;;;;;;0.80;0.50;;;;;;;22.95;90.97;99509.52;106871;1269;99676;-52
2023/08/05 07:01:55;;;;;;;0.90;0.50;;;;;;;23.16;90.28;99507.45;106792;1262;22544;-55
2023/08/05 07:04:24;;;;;;;1.70;0.90;;;;;;;23.42;90.16;99504.00;106899;1269;23659;-58
2023/08/05 07:06:54;;;;;;;2.70;0.50;;;;;;;23.66;89.88;99506.41;106901;1269;99107;-60
2023/08/05 07:09:23;;;;;;;1.70;0.70;;;;;;;23.88;89.51;99507.72;106785;1270;23131;-57
2023/08/05 07:11:54;;;;;;;2.20;0.60;;;;;;;24.13;89.25;99510.11;106887;1276;99125;-56
2023/08/05 07:14:26;;;;;;;1.60;0.70;;;;;;;24.40;88.45;99511.25;106903;1269;22585;-58
2023/08/05 07:16:54;;;;;;;2.80;0.80;;;;;;;24.56;88.25;99513.54;106827;1269;99374;-59
2023/08/05 07:19:23;;;;;;;2.10;1.00;;;;;;;24.66;87.18;99516.34;106784;1269;23613;-56
2023/08/05 07:21:52;;;;;;;1.30;0.70;;;;;;;24.82;87.34;99517.15;106933;1269;22627;-55
2023/08/05 07:24:21;;;;;;;1.20;0.70;;;;;;;24.91;86.74;99511.48;106875;1269;99078;-54
2023/08/05 07:26:50;;;;;;;1.70;0.80;;;;;;;24.96;86.11;99505.95;106910;1269;22886;-55
2023/08/05 07:29:19;;;;;;;1.60;0.80;;;;;;;24.94;85.92;99506.35;106921;1269;99260;-56
2023/08/05 07:31:51;;;;;;;1.80;1.00;;;;;;;25.06;86.01;99503.98;106728;1270;25340;-55
2023/08/05 07:34:20;;;;;;;2.00;0.90;;;;;;;25.34;85.65;99501.91;106849;1269;25230;-59
2023/08/05 07:36:49;;;;;;;2.70;1.10;;;;;;;25.61;84.81;99507.55;106675;1269;100631;-57
2023/08/05 07:39:18;;;;;;;1.70;1.00;;;;;;;25.99;84.69;99507.06;106750;1269;25372;-56
2023/08/05 07:41:48;;;;;;;2.60;0.80;;;;;;;26.35;83.99;99506.37;106749;1270;99138;-59
2023/08/05 07:44:17;;;;;;;1.30;0.60;;;;;;;26.67;83.46;99501.36;106863;1272;22541;-60
2023/08/05 07:46:47;;;;;;;1.30;0.90;;;;;;;26.87;82.46;99497.19;106715;1270;24067;-55
2023/08/05 07:49:17;;;;;;;2.10;0.90;;;;;;;26.68;79.80;99493.91;108873;1269;98920;-56
2023/08/05 07:51:48;;;;;;;1.70;0.70;;;;;;;26.23;79.91;99498.04;106795;1269;23479;-55
2023/08/05 07:54:17;;;;;;;1.50;0.90;;;;;;;26.28;80.24;99492.91;106792;1269;99083;-56
2023/08/05 07:56:48;;;;;;;1.80;0.90;;;;;;;26.07;79.74;99496.27;106797;1269;25181;-59
2023/08/05 07:59:19;;;;;;;2.60;1.20;;;;;;;26.22;79.66;99495.06;106723;1269;99346;-59
2023/08/05 08:01:48;;;;;;;5.60;1.50;;;;;;;26.44;79.43;99495.85;106852;1270;22602;-60
2023/08/05 08:04:17;;;;;;;2.10;0.70;;;;;;;26.66;79.04;99493.89;107979;1269;24307;-59
2023/08/05 08:06:47;;;;;;;2.90;1.00;;;;;;;26.80;78.79;99497.94;106885;1269;99082;-59
2023/08/05 08:09:16;;;;;;;6.50;1.90;;;;;;;26.88;78.31;99499.09;106993;1269;25304;-58
2023/08/05 08:11:44;;;;;;;3.20;1.30;;;;;;;26.77;77.12;99497.92;108400;1269;99181;-58
2023/08/05 08:14:13;;;;;;;2.10;1.10;;;;;;;26.66;76.84;99503.48;109441;1269;25336;-59
2023/08/05 08:16:42;;;;;;;2.40;0.90;;;;;;;26.54;76.36;99506.13;106646;1267;22921;-58
2023/08/05 08:19:12;;;;;;;1.90;1.10;;;;;;;26.38;75.17;99507.48;110444;1273;98878;-59
2023/08/05 08:21:40;;;;;;;1.10;0.60;;;;;;;25.82;73.96;99504.89;109541;1265;22538;-57
2023/08/05 08:24:09;;;;;;;3.10;0.70;;;;;;;25.09;73.48;99505.55;106754;1269;99118;-59
2023/08/05 08:26:38;;;;;;;0.90;0.40;;;;;;;24.72;73.31;99500.35;106880;1260;22982;-59
2023/08/05 08:29:07;;;;;;;0.90;0.50;;;;;;;24.47;72.76;99496.94;106848;1269;99471;-59
2023/08/05 08:31:36;;;;;;;1.00;0.60;;;;;;;24.23;72.90;99495.54;106992;1269;23896;-61
2023/08/05 08:34:05;;;;;;;1.10;0.80;;;;;;;24.15;73.05;99489.72;106786;1272;24201;-59
2023/08/05 08:36:34;;;;;;;1.70;0.80;;;;;;;24.24;72.86;99492.02;106774;1269;100924;-57
2023/08/05 08:40:04;;;;;;;1.80;0.70;;;;;;;24.41;72.72;99494.40;107752;1268;22589;-58
2023/08/05 08:42:34;;;;;;;1.50;0.60;;;;;;;24.50;71.96;99500.13;107956;1275;99646;-58
2023/08/05 08:45:05;;;;;;;3.70;0.90;;;;;;;24.44;71.90;99505.29;106523;1273;22546;-59
2023/08/05 08:47:37;;;;;;;1.70;1.00;;;;;;;24.50;71.81;99506.20;106367;1277;99281;-57
2023/08/05 08:50:07;;;;;;;1.20;0.50;;;;;;;24.52;71.39;99499.27;106337;1270;23022;-59
2023/08/05 08:52:38;;;;;;;1.20;0.70;;;;;;;24.45;71.60;99495.89;106403;1275;22497;-59
2023/08/05 08:55:08;;;;;;;2.40;0.60;;;;;;;24.56;71.68;99492.88;106297;1275;99147;-58
2023/08/05 08:57:37;;;;;;;0.90;0.60;;;;;;;24.66;71.03;99491.24;106513;1273;22603;-59
2023/08/05 09:00:07;;;;;;;1.20;0.70;;;;;;;24.55;70.15;99499.03;106265;1276;99140;-59
2023/08/05 09:02:36;;;;;;;1.30;0.70;;;;;;;24.43;70.41;99505.91;106494;1275;25459;-60
2023/08/05 09:05:07;;;;;;;2.40;0.60;;;;;;;24.54;70.79;99507.20;106429;1276;99551;-60
2023/08/05 09:07:37;;;;;;;1.30;0.60;;;;;;;25.04;69.95;99515.14;106396;1274;24262;-60
2023/08/05 09:10:06;;;;;;;1.40;0.60;;;;;;;25.30;70.09;99506.14;106388;1273;22665;-60
2023/08/05 09:12:36;;;;;;;1.50;0.70;;;;;;;25.59;69.42;99501.58;106411;1275;99153;-60
2023/08/05 09:15:05;;;;;;;0.80;0.50;;;;;;;25.67;69.04;99495.32;106515;1274;22790;-60
2023/08/05 09:17:41;;;;;;;2.00;0.80;;;;;;;25.81;68.88;99488.70;106393;1266;99313;-61
2023/08/05 09:20:16;;;;;;;1.70;0.80;;;;;;;25.77;68.78;99480.82;106764;1269;22596;-61
2023/08/05 09:22:56;;;;;;;1.70;0.80;;;;;;;25.63;66.71;99479.92;106786;1269;22523;-60
2023/08/05 09:25:25;;;;;;;1.50;0.60;;;;;;;25.59;67.30;99476.11;106712;1271;22531;-61
2023/08/05 09:27:54;;;;;;;3.40;0.80;;;;;;;26.45;67.92;99471.15;106858;1269;25332;-59
2023/08/05 09:30:25;;;;;;;2.30;0.90;;;;;;;27.43;67.41;99467.39;106764;1268;99132;-57
2023/08/05 09:32:54;;;;;;;1.00;0.40;;;;;;;27.96;66.48;99463.65;106880;1272;22536;-61
2023/08/05 09:35:25;;;;;;;2.20;1.30;;;;;;;28.01;65.94;99466.39;106760;1270;99278;-63
2023/08/05 09:37:54;;;;;;;0.70;0.50;;;;;;;27.74;65.57;99463.45;106964;1269;22618;-57
2023/08/05 09:40:29;;;;;;;2.00;0.90;;;;;;;27.78;65.52;99462.13;106949;1270;22517;-60
2023/08/05 09:42:59;;;;;;;1.00;0.90;;;;;;;28.05;65.14;99462.14;106788;1269;99716;-61
2023/08/05 09:45:32;;;;;;;2.60;0.50;;;;;;;28.12;64.20;99465.25;106822;1273;22529;-64
2023/08/05 09:48:06;;;;;;;3.20;1.20;;;;;;;27.85;63.94;99469.45;106811;1269;99124;-56
2023/08/05 09:50:40;;;;;;;0.70;0.40;;;;;;;27.70;63.56;99465.17;106843;1270;22521;-60
2023/08/05 09:53:14;;;;;;;1.30;0.40;;;;;;;27.34;62.84;99465.57;106821;1269;99257;-63
2023/08/05 09:55:43;;;;;;;1.60;0.70;;;;;;;26.95;61.89;99461.77;106930;1272;25339;-60
2023/08/05 09:58:16;;;;;;;1.40;0.60;;;;;;;26.14;60.96;99467.48;106898;1269;22532;-59
2023/08/05 10:00:48;;;;;;;0.80;0.50;;;;;;;25.65;61.57;99467.92;106771;1269;99112;-61
2023/08/05 10:03:19;;;;;;;0.90;0.60;;;;;;;25.52;61.63;99467.30;106857;1269;24212;-60
2023/08/05 10:05:50;;;;;;;1.50;0.50;;;;;;;25.37;61.27;99462.10;106789;1269;99101;-58
2023/08/05 10:08:20;;;;;;;2.10;0.50;;;;;;;25.27;61.02;99460.29;106945;1271;22993;-61
2023/08/05 10:10:52;;;;;;;1.60;1.10;;;;;;;25.04;60.82;99461.23;106883;1269;22520;-62
2023/08/05 10:13:22;;;;;;;1.00;0.50;;;;;;;24.77;60.64;99455.69;106873;1275;24347;-59
2023/08/05 10:15:56;;;;;;;1.70;0.70;;;;;;;24.69;60.33;99454.34;106836;1269;22534;-59
2023/08/05 10:18:26;;;;;;;1.20;0.50;;;;;;;24.73;60.27;99454.05;106929;1272;99192;-61
2023/08/05 10:20:55;;;;;;;0.80;0.60;;;;;;;24.78;60.21;99450.40;106950;1269;22527;-59
2023/08/05 10:23:25;;;;;;;2.70;0.80;;;;;;;24.70;60.14;99458.60;106852;1269;99415;-59
2023/08/05 10:25:59;;;;;;;2.40;0.80;;;;;;;24.55;60.03;99458.86;106932;1269;25338;-56
2023/08/05 10:28:35;;;;;;;2.70;0.90;;;;;;;24.38;59.63;99459.13;106746;1266;22526;-59
2023/08/05 10:31:23;;;;;;;0.80;0.60;;;;;;;24.19;59.60;99460.11;106784;1264;99108;-60
2023/08/05 10:34:11;;;;;;;0.60;0.60;;;;;;;24.15;59.73;99459.05;106919;1270;25347;-55
2023/08/05 10:36:57;;;;;;;2.50;0.80;;;;;;;23.97;59.44;99459.78;107155;1269;99153;-63
2023/08/05 10:39:44;;;;;;;1.00;0.60;;;;;;;23.65;59.21;99459.81;107016;1269;22681;-60
2023/08/05 10:42:29;;;;;;;1.20;0.60;;;;;;;23.42;59.26;99459.91;106854;1269;99148;-61
2023/08/05 10:44:59;;;;;;;1.10;0.70;;;;;;;23.47;59.59;99455.10;107226;1269;24180;-58
2023/08/05 10:47:29;;;;;;;3.10;0.90;;;;;;;23.57;59.62;99452.50;106938;1261;99260;-59
2023/08/05 10:49:59;;;;;;;2.00;1.10;;;;;;;23.70;59.76;99455.98;106801;1270;23785;-59
2023/08/05 10:52:35;;;;;;;1.20;1.00;;;;;;;23.68;59.42;99453.47;106941;1261;22529;-58
2023/08/05 10:55:10;;;;;;;2.00;0.80;;;;;;;23.66;59.70;99448.73;106896;1269;99163;-59
2023/08/05 10:57:39;;;;;;;1.90;0.60;;;;;;;23.84;59.76;99448.15;109001;1263;22523;-57
2023/08/05 11:00:18;;;;;;;2.10;1.00;;;;;;;23.91;59.58;99446.92;107012;1269;99111;-63
2023/08/05 11:02:49;;;;;;;1.70;1.10;;;;;;;24.02;59.83;99442.90;106860;1269;22555;-59
2023/08/05 11:05:23;;;;;;;1.90;1.00;;;;;;;24.19;59.85;99445.45;106858;1269;99277;-58
2023/08/05 11:07:56;;;;;;;1.30;0.90;;;;;;;24.18;59.48;99435.67;106851;1269;22520;-60
2023/08/05 11:10:30;;;;;;;2.60;0.80;;;;;;;24.20;59.67;99429.92;106851;1269;22529;-58
2023/08/05 11:12:59;;;;;;;2.70;1.00;;;;;;;24.30;59.50;99431.84;106846;1274;99205;-57
2023/08/05 11:15:28;;;;;;;2.00;1.30;;;;;;;24.32;59.35;99432.91;107086;1269;23915;-60
2023/08/05 11:17:58;;;;;;;2.10;1.10;;;;;;;24.37;59.49;99424.73;106826;1272;99108;-61
2023/08/05 11:20:32;;;;;;;1.30;1.00;;;;;;;24.72;59.88;99420.70;106923;1263;22527;-58
2023/08/05 11:23:01;;;;;;;2.90;0.90;;;;;;;24.83;58.91;99420.14;106782;1269;99400;-60
2023/08/05 11:25:31;;;;;;;2.30;0.70;;;;;;;24.11;58.33;99413.86;106890;1269;25226;-59
2023/08/05 11:28:00;;;;;;;1.10;1.00;;;;;;;24.06;58.83;99412.03;106958;1270;22634;-63
2023/08/05 11:30:29;;;;;;;1.50;0.70;;;;;;;24.39;59.03;99406.23;106778;1272;100985;-59
2023/08/05 11:32:58;;;;;;;1.30;0.80;;;;;;;24.89;59.24;99407.01;106822;1270;24533;-60
2023/08/05 11:36:13;;;;;;;2.30;1.30;;;;;;;25.38;58.94;99405.30;107011;1269;99250;-60
2023/08/05 11:38:42;;;;;;;1.30;0.60;;;;;;;25.88;59.14;99402.30;106796;1275;22516;-59
2023/08/05 11:41:10;;;;;;;2.60;1.10;;;;;;;26.45;58.84;99405.41;109684;1275;99758;-57
2023/08/05 11:43:40;;;;;;;1.20;0.80;;;;;;;26.80;58.63;99401.30;109751;1274;22268;-57
2023/08/05 11:46:29;;;;;;;3.00;1.00;;;;;;;27.29;58.49;99400.89;109822;1274;22175;-58
2023/08/05 11:49:36;;;;;;;0.90;0.70;;;;;;;28.27;58.42;99398.92;109733;1273;99242;-59
2023/08/05 11:52:10;;;;;;;1.30;1.10;;;;;;;29.20;57.95;99400.21;109826;1275;22180;-58
2023/08/05 11:54:41;;;;;;;2.10;0.90;;;;;;;29.39;57.36;99401.00;109772;1274;99517;-59
2023/08/05 11:57:19;;;;;;;3.10;0.80;;;;;;;29.29;57.26;99403.33;109824;1275;22137;-59
2023/08/05 11:59:48;;;;;;;1.70;0.60;;;;;;;29.27;56.27;99402.23;109783;1274;99597;-58
2023/08/05 12:02:19;;;;;;;1.20;0.70;;;;;;;29.12;56.89;99401.73;107943;1278;22588;-60